Surhuisterveen, Netherlands
Current Conditions -  °F | °C
As of 5:25 PM on Friday 31 Oct 2014 (Local Time) from EHLW Reporting Station
Haze Haze  
Wind Chill: 57°   Ceiling: 25000
Heat Index: 57°   Visibility: 3mi
Dew Point: 55°   Wind: 6mph
Humidity: 94%   Direction: 180°S
Pressure: 30.09"   Gusts: NA
Location:  53.18°N, 6.17°E
Report Text: EHLW 311625Z AUTO 18005KT 5000 BR FEW086 OVC250 14/13 Q1019 WHT
Loading
Personal Weather Stations






























Interactive Weather Map
Tropical Storm Tracking
New forecast layout! Learn more

10-Day Weather Forecast

Advertisements
Track Severe Weather on mobile